sensor_id;sensor_type;location;lat;lon;timestamp;temperature;humidity
31113;DHT22;17763;48.730;9.136;2023-09-18T00:00:29;20.40;99.90
31113;DHT22;17763;48.730;9.136;2023-09-18T00:02:55;20.30;99.90
31113;DHT22;17763;48.730;9.136;2023-09-18T00:05:23;20.40;99.90
31113;DHT22;17763;48.730;9.136;2023-09-18T00:07:49;20.40;99.90
31113;DHT22;17763;48.730;9.136;2023-09-18T00:10:14;20.40;99.90
31113;DHT22;17763;48.730;9.136;2023-09-18T00:12:40;20.40;99.90
31113;DHT22;17763;48.730;9.136;2023-09-18T00:15:07;20.40;99.90
31113;DHT22;17763;48.730;9.136;2023-09-18T00:17:35;20.40;99.90
31113;DHT22;17763;48.730;9.136;2023-09-18T00:20:03;20.40;99.90
31113;DHT22;17763;48.730;9.136;2023-09-18T00:22:33;20.30;99.90
31113;DHT22;17763;48.730;9.136;2023-09-18T00:25:01;20.30;99.90
31113;DHT22;17763;48.730;9.136;2023-09-18T00:27:29;20.30;99.90
31113;DHT22;17763;48.730;9.136;2023-09-18T00:29:55;20.30;99.90
31113;DHT22;17763;48.730;9.136;2023-09-18T00:32:21;20.30;99.90
31113;DHT22;17763;48.730;9.136;2023-09-18T00:34:46;20.30;99.90
31113;DHT22;17763;48.730;9.136;2023-09-18T00:37:12;20.30;99.90
31113;DHT22;17763;48.730;9.136;2023-09-18T00:39:41;20.30;99.90
31113;DHT22;17763;48.730;9.136;2023-09-18T00:42:06;20.30;99.90
31113;DHT22;17763;48.730;9.136;2023-09-18T00:44:32;20.40;99.90
31113;DHT22;17763;48.730;9.136;2023-09-18T00:46:58;20.40;99.90
31113;DHT22;17763;48.730;9.136;2023-09-18T00:49:24;20.40;99.90
31113;DHT22;17763;48.730;9.136;2023-09-18T00:51:50;20.40;99.90
31113;DHT22;17763;48.730;9.136;2023-09-18T00:54:18;20.50;99.90
31113;DHT22;17763;48.730;9.136;2023-09-18T00:56:47;20.50;99.90
31113;DHT22;17763;48.730;9.136;2023-09-18T00:59:22;20.50;99.90
31113;DHT22;17763;48.730;9.136;2023-09-18T01:01:48;20.40;99.90
31113;DHT22;17763;48.730;9.136;2023-09-18T01:04:16;20.50;99.90
31113;DHT22;17763;48.730;9.136;2023-09-18T01:06:42;20.40;99.90
31113;DHT22;17763;48.730;9.136;2023-09-18T01:09:08;20.50;99.90
31113;DHT22;17763;48.730;9.136;2023-09-18T01:11:52;20.50;99.90
31113;DHT22;17763;48.730;9.136;2023-09-18T01:16:56;20.40;99.90
31113;DHT22;17763;48.730;9.136;2023-09-18T01:22:09;20.40;99.90
31113;DHT22;17763;48.730;9.136;2023-09-18T01:24:38;20.40;99.90
31113;DHT22;17763;48.730;9.136;2023-09-18T01:27:07;20.40;99.90
31113;DHT22;17763;48.730;9.136;2023-09-18T01:29:33;20.30;99.90
31113;DHT22;17763;48.730;9.136;2023-09-18T01:31:58;20.30;99.90
31113;DHT22;17763;48.730;9.136;2023-09-18T01:34:36;20.30;99.90
31113;DHT22;17763;48.730;9.136;2023-09-18T01:37:06;20.30;99.90
31113;DHT22;17763;48.730;9.136;2023-09-18T01:39:35;20.30;99.90
31113;DHT22;17763;48.730;9.136;2023-09-18T01:42:03;20.30;99.90
31113;DHT22;17763;48.730;9.136;2023-09-18T01:44:32;20.30;99.90
31113;DHT22;17763;48.730;9.136;2023-09-18T01:47:00;20.30;99.90
31113;DHT22;17763;48.730;9.136;2023-09-18T01:49:36;20.30;99.90
31113;DHT22;17763;48.730;9.136;2023-09-18T01:52:04;20.40;99.90
31113;DHT22;17763;48.730;9.136;2023-09-18T01:54:30;20.50;99.90
31113;DHT22;17763;48.730;9.136;2023-09-18T01:56:56;20.60;99.90
31113;DHT22;17763;48.730;9.136;2023-09-18T01:59:23;20.70;99.90
31113;DHT22;17763;48.730;9.136;2023-09-18T02:01:49;20.90;99.90
31113;DHT22;17763;48.730;9.136;2023-09-18T02:04:17;20.90;99.90
31113;DHT22;17763;48.730;9.136;2023-09-18T02:06:44;21.00;99.90
31113;DHT22;17763;48.730;9.136;2023-09-18T02:09:10;21.00;99.90
31113;DHT22;17763;48.730;9.136;2023-09-18T02:11:40;20.90;99.90
31113;DHT22;17763;48.730;9.136;2023-09-18T02:14:07;20.90;99.90
31113;DHT22;17763;48.730;9.136;2023-09-18T02:16:37;20.90;99.90
31113;DHT22;17763;48.730;9.136;2023-09-18T02:19:03;21.00;99.90
31113;DHT22;17763;48.730;9.136;2023-09-18T02:21:30;21.00;99.90
31113;DHT22;17763;48.730;9.136;2023-09-18T02:23:56;21.00;99.90
31113;DHT22;17763;48.730;9.136;2023-09-18T02:26:23;20.90;99.90
31113;DHT22;17763;48.730;9.136;2023-09-18T02:28:51;20.90;99.90
31113;DHT22;17763;48.730;9.136;2023-09-18T02:31:20;20.70;99.90
31113;DHT22;17763;48.730;9.136;2023-09-18T02:33:46;20.70;99.90
31113;DHT22;17763;48.730;9.136;2023-09-18T02:36:15;20.50;99.90
31113;DHT22;17763;48.730;9.136;2023-09-18T02:38:41;20.50;99.90
31113;DHT22;17763;48.730;9.136;2023-09-18T02:41:07;20.50;99.90
31113;DHT22;17763;48.730;9.136;2023-09-18T02:43:33;20.60;99.90
31113;DHT22;17763;48.730;9.136;2023-09-18T02:45:58;20.60;99.90
31113;DHT22;17763;48.730;9.136;2023-09-18T02:48:24;20.70;99.90
31113;DHT22;17763;48.730;9.136;2023-09-18T02:50:52;20.70;99.90
31113;DHT22;17763;48.730;9.136;2023-09-18T02:53:18;20.70;99.90
31113;DHT22;17763;48.730;9.136;2023-09-18T02:55:45;20.60;99.90
31113;DHT22;17763;48.730;9.136;2023-09-18T02:58:10;20.60;99.90
31113;DHT22;17763;48.730;9.136;2023-09-18T03:00:46;20.50;99.90
31113;DHT22;17763;48.730;9.136;2023-09-18T03:03:15;20.40;99.90
31113;DHT22;17763;48.730;9.136;2023-09-18T03:05:42;20.40;99.90
31113;DHT22;17763;48.730;9.136;2023-09-18T03:08:08;20.40;99.90
31113;DHT22;17763;48.730;9.136;2023-09-18T03:10:38;20.30;99.90
31113;DHT22;17763;48.730;9.136;2023-09-18T03:13:08;20.30;99.90
31113;DHT22;17763;48.730;9.136;2023-09-18T03:15:36;20.30;99.90
31113;DHT22;17763;48.730;9.136;2023-09-18T03:18:03;20.40;99.90
31113;DHT22;17763;48.730;9.136;2023-09-18T03:20:30;20.40;99.90
31113;DHT22;17763;48.730;9.136;2023-09-18T03:23:00;20.30;99.90
31113;DHT22;17763;48.730;9.136;2023-09-18T03:25:26;20.30;99.90
31113;DHT22;17763;48.730;9.136;2023-09-18T03:27:53;20.20;99.90
31113;DHT22;17763;48.730;9.136;2023-09-18T03:30:20;20.20;99.90
31113;DHT22;17763;48.730;9.136;2023-09-18T03:32:47;20.10;99.90
31113;DHT22;17763;48.730;9.136;2023-09-18T03:35:13;20.00;99.90
31113;DHT22;17763;48.730;9.136;2023-09-18T03:37:50;20.00;99.90
31113;DHT22;17763;48.730;9.136;2023-09-18T03:40:19;20.00;99.90
31113;DHT22;17763;48.730;9.136;2023-09-18T03:42:45;20.00;99.90
31113;DHT22;17763;48.730;9.136;2023-09-18T03:45:13;20.00;99.90
31113;DHT22;17763;48.730;9.136;2023-09-18T03:47:40;20.00;99.90
31113;DHT22;17763;48.730;9.136;2023-09-18T03:50:08;20.00;99.90
31113;DHT22;17763;48.730;9.136;2023-09-18T03:52:34;20.00;99.90
31113;DHT22;17763;48.730;9.136;2023-09-18T03:54:59;20.00;99.90
31113;DHT22;17763;48.730;9.136;2023-09-18T03:57:27;20.00;99.90
31113;DHT22;17763;48.730;9.136;2023-09-18T03:59:53;20.00;99.90
31113;DHT22;17763;48.730;9.136;2023-09-18T04:02:20;20.00;99.90
31113;DHT22;17763;48.730;9.136;2023-09-18T04:04:45;20.00;99.90
31113;DHT22;17763;48.730;9.136;2023-09-18T04:07:11;20.00;99.90
31113;DHT22;17763;48.730;9.136;2023-09-18T04:09:37;19.90;99.90
31113;DHT22;17763;48.730;9.136;2023-09-18T04:12:04;19.90;99.90
31113;DHT22;17763;48.730;9.136;2023-09-18T04:14:32;19.90;99.90
31113;DHT22;17763;48.730;9.136;2023-09-18T04:16:58;19.90;99.90
31113;DHT22;17763;48.730;9.136;2023-09-18T04:19:28;19.90;99.90
31113;DHT22;17763;48.730;9.136;2023-09-18T04:21:56;19.90;99.90
31113;DHT22;17763;48.730;9.136;2023-09-18T04:24:22;19.90;99.90
31113;DHT22;17763;48.730;9.136;2023-09-18T04:26:48;19.90;99.90
31113;DHT22;17763;48.730;9.136;2023-09-18T04:29:16;19.90;99.90
31113;DHT22;17763;48.730;9.136;2023-09-18T04:31:42;19.90;99.90
31113;DHT22;17763;48.730;9.136;2023-09-18T04:34:07;19.90;99.90
31113;DHT22;17763;48.730;9.136;2023-09-18T04:36:33;19.90;99.90
31113;DHT22;17763;48.730;9.136;2023-09-18T04:38:59;19.90;99.90
31113;DHT22;17763;48.730;9.136;2023-09-18T04:41:24;19.90;99.90
31113;DHT22;17763;48.730;9.136;2023-09-18T04:43:53;19.90;99.90
31113;DHT22;17763;48.730;9.136;2023-09-18T04:46:18;19.90;99.90
31113;DHT22;17763;48.730;9.136;2023-09-18T04:48:44;19.90;99.90
31113;DHT22;17763;48.730;9.136;2023-09-18T04:51:09;19.90;99.90
31113;DHT22;17763;48.730;9.136;2023-09-18T04:53:37;19.90;99.90
31113;DHT22;17763;48.730;9.136;2023-09-18T04:56:03;19.90;99.90
31113;DHT22;17763;48.730;9.136;2023-09-18T04:58:31;19.90;99.90
31113;DHT22;17763;48.730;9.136;2023-09-18T05:00:57;19.90;99.90
31113;DHT22;17763;48.730;9.136;2023-09-18T05:03:23;19.90;99.90
31113;DHT22;17763;48.730;9.136;2023-09-18T05:05:51;19.90;99.90
31113;DHT22;17763;48.730;9.136;2023-09-18T05:08:17;19.80;99.90
31113;DHT22;17763;48.730;9.136;2023-09-18T05:10:43;19.80;99.90
31113;DHT22;17763;48.730;9.136;2023-09-18T05:13:09;19.80;99.90
31113;DHT22;17763;48.730;9.136;2023-09-18T05:15:35;19.70;99.90
31113;DHT22;17763;48.730;9.136;2023-09-18T05:18:01;19.70;99.90
31113;DHT22;17763;48.730;9.136;2023-09-18T05:20:29;19.60;99.90
31113;DHT22;17763;48.730;9.136;2023-09-18T05:22:57;19.60;99.90
31113;DHT22;17763;48.730;9.136;2023-09-18T05:25:24;19.50;99.90
31113;DHT22;17763;48.730;9.136;2023-09-18T05:27:51;19.50;99.90
31113;DHT22;17763;48.730;9.136;2023-09-18T05:30:28;19.50;99.90
31113;DHT22;17763;48.730;9.136;2023-09-18T05:32:55;19.40;99.90
31113;DHT22;17763;48.730;9.136;2023-09-18T05:35:21;19.40;99.90
31113;DHT22;17763;48.730;9.136;2023-09-18T05:37:48;19.40;99.90
31113;DHT22;17763;48.730;9.136;2023-09-18T05:40:14;19.40;99.90
31113;DHT22;17763;48.730;9.136;2023-09-18T05:42:41;19.40;99.90
31113;DHT22;17763;48.730;9.136;2023-09-18T05:45:14;19.40;99.90
31113;DHT22;17763;48.730;9.136;2023-09-18T05:47:41;19.40;99.90
31113;DHT22;17763;48.730;9.136;2023-09-18T05:50:09;19.40;99.90
31113;DHT22;17763;48.730;9.136;2023-09-18T05:52:35;19.40;99.90
31113;DHT22;17763;48.730;9.136;2023-09-18T05:55:04;19.40;99.90
31113;DHT22;17763;48.730;9.136;2023-09-18T05:57:34;19.40;99.90
31113;DHT22;17763;48.730;9.136;2023-09-18T06:00:00;19.40;99.90
31113;DHT22;17763;48.730;9.136;2023-09-18T06:02:28;19.40;99.90
31113;DHT22;17763;48.730;9.136;2023-09-18T06:04:58;19.40;99.90
31113;DHT22;17763;48.730;9.136;2023-09-18T06:07:26;19.30;99.90
31113;DHT22;17763;48.730;9.136;2023-09-18T06:09:52;19.30;99.90
31113;DHT22;17763;48.730;9.136;2023-09-18T06:12:18;19.30;99.90
31113;DHT22;17763;48.730;9.136;2023-09-18T06:14:43;19.30;99.90
31113;DHT22;17763;48.730;9.136;2023-09-18T06:17:14;19.30;99.90
31113;DHT22;17763;48.730;9.136;2023-09-18T06:19:41;19.30;99.90
31113;DHT22;17763;48.730;9.136;2023-09-18T06:22:06;19.30;99.90
31113;DHT22;17763;48.730;9.136;2023-09-18T06:24:35;19.30;99.90
31113;DHT22;17763;48.730;9.136;2023-09-18T06:27:02;19.30;99.90
31113;DHT22;17763;48.730;9.136;2023-09-18T06:29:31;19.40;99.90
31113;DHT22;17763;48.730;9.136;2023-09-18T06:31:57;19.40;99.90
31113;DHT22;17763;48.730;9.136;2023-09-18T06:34:22;19.40;99.90
31113;DHT22;17763;48.730;9.136;2023-09-18T06:36:48;19.50;99.90
31113;DHT22;17763;48.730;9.136;2023-09-18T06:39:14;19.50;99.90
31113;DHT22;17763;48.730;9.136;2023-09-18T06:41:40;19.50;99.90
31113;DHT22;17763;48.730;9.136;2023-09-18T06:44:06;19.60;99.90
31113;DHT22;17763;48.730;9.136;2023-09-18T06:46:32;19.60;99.90
31113;DHT22;17763;48.730;9.136;2023-09-18T06:48:58;19.60;99.90
31113;DHT22;17763;48.730;9.136;2023-09-18T06:51:25;19.70;99.90
31113;DHT22;17763;48.730;9.136;2023-09-18T06:53:51;19.70;99.90
31113;DHT22;17763;48.730;9.136;2023-09-18T06:56:17;19.70;99.90
31113;DHT22;17763;48.730;9.136;2023-09-18T06:58:43;19.70;99.90
31113;DHT22;17763;48.730;9.136;2023-09-18T07:01:11;19.70;99.90
31113;DHT22;17763;48.730;9.136;2023-09-18T07:03:36;19.70;99.90
31113;DHT22;17763;48.730;9.136;2023-09-18T07:06:03;19.70;99.90
31113;DHT22;17763;48.730;9.136;2023-09-18T07:08:30;19.80;99.90
31113;DHT22;17763;48.730;9.136;2023-09-18T07:10:56;19.80;99.90
31113;DHT22;17763;48.730;9.136;2023-09-18T07:13:22;19.90;99.90
31113;DHT22;17763;48.730;9.136;2023-09-18T07:15:48;19.90;99.90
31113;DHT22;17763;48.730;9.136;2023-09-18T07:18:13;20.00;99.90
31113;DHT22;17763;48.730;9.136;2023-09-18T07:20:40;20.00;99.90
31113;DHT22;17763;48.730;9.136;2023-09-18T07:23:07;20.10;99.90
31113;DHT22;17763;48.730;9.136;2023-09-18T07:25:32;20.10;99.90
31113;DHT22;17763;48.730;9.136;2023-09-18T07:28:00;20.10;99.90
31113;DHT22;17763;48.730;9.136;2023-09-18T07:30:26;20.10;99.90
31113;DHT22;17763;48.730;9.136;2023-09-18T07:32:55;20.10;99.90
31113;DHT22;17763;48.730;9.136;2023-09-18T07:35:24;20.10;99.90
31113;DHT22;17763;48.730;9.136;2023-09-18T07:37:50;20.20;99.90
31113;DHT22;17763;48.730;9.136;2023-09-18T07:40:16;20.10;99.90
31113;DHT22;17763;48.730;9.136;2023-09-18T07:42:41;20.10;99.90
31113;DHT22;17763;48.730;9.136;2023-09-18T07:45:10;20.10;99.90
31113;DHT22;17763;48.730;9.136;2023-09-18T07:47:37;20.10;99.90
31113;DHT22;17763;48.730;9.136;2023-09-18T07:50:03;20.20;99.90
31113;DHT22;17763;48.730;9.136;2023-09-18T07:52:29;20.30;99.90
31113;DHT22;17763;48.730;9.136;2023-09-18T07:54:55;20.30;99.90
31113;DHT22;17763;48.730;9.136;2023-09-18T07:57:21;20.40;99.90
31113;DHT22;17763;48.730;9.136;2023-09-18T07:59:48;20.30;99.90
31113;DHT22;17763;48.730;9.136;2023-09-18T08:02:14;20.30;99.90
31113;DHT22;17763;48.730;9.136;2023-09-18T08:04:40;20.30;99.90
31113;DHT22;17763;48.730;9.136;2023-09-18T08:07:06;20.30;99.90
31113;DHT22;17763;48.730;9.136;2023-09-18T08:09:32;20.20;99.90
31113;DHT22;17763;48.730;9.136;2023-09-18T08:12:02;20.20;99.90
31113;DHT22;17763;48.730;9.136;2023-09-18T08:14:28;20.10;99.90
31113;DHT22;17763;48.730;9.136;2023-09-18T08:17:00;20.10;99.90
31113;DHT22;17763;48.730;9.136;2023-09-18T08:19:26;20.10;99.90
31113;DHT22;17763;48.730;9.136;2023-09-18T08:21:55;20.10;99.90
31113;DHT22;17763;48.730;9.136;2023-09-18T08:24:22;20.10;99.90
31113;DHT22;17763;48.730;9.136;2023-09-18T08:26:48;20.10;99.90
31113;DHT22;17763;48.730;9.136;2023-09-18T08:29:14;20.10;99.90
31113;DHT22;17763;48.730;9.136;2023-09-18T08:31:41;20.20;99.90
31113;DHT22;17763;48.730;9.136;2023-09-18T08:34:06;20.10;99.90
31113;DHT22;17763;48.730;9.136;2023-09-18T08:36:32;20.10;99.90
31113;DHT22;17763;48.730;9.136;2023-09-18T08:38:58;20.10;99.90
31113;DHT22;17763;48.730;9.136;2023-09-18T08:41:24;20.00;99.90
31113;DHT22;17763;48.730;9.136;2023-09-18T08:43:56;20.00;99.90
31113;DHT22;17763;48.730;9.136;2023-09-18T08:46:25;19.90;99.90
31113;DHT22;17763;48.730;9.136;2023-09-18T08:48:54;19.80;99.90
31113;DHT22;17763;48.730;9.136;2023-09-18T08:51:21;19.80;99.90
31113;DHT22;17763;48.730;9.136;2023-09-18T08:53:48;19.80;99.90
31113;DHT22;17763;48.730;9.136;2023-09-18T08:56:15;19.80;99.90
31113;DHT22;17763;48.730;9.136;2023-09-18T08:58:43;19.70;99.90
31113;DHT22;17763;48.730;9.136;2023-09-18T09:01:10;19.70;99.90
31113;DHT22;17763;48.730;9.136;2023-09-18T09:03:40;19.70;99.90
31113;DHT22;17763;48.730;9.136;2023-09-18T09:06:08;19.70;99.90
31113;DHT22;17763;48.730;9.136;2023-09-18T09:08:35;19.70;99.90
31113;DHT22;17763;48.730;9.136;2023-09-18T09:11:01;19.60;99.90
31113;DHT22;17763;48.730;9.136;2023-09-18T09:13:27;19.60;99.90
31113;DHT22;17763;48.730;9.136;2023-09-18T09:15:59;19.60;99.90
31113;DHT22;17763;48.730;9.136;2023-09-18T09:18:29;19.50;99.90
31113;DHT22;17763;48.730;9.136;2023-09-18T09:21:03;19.50;99.90
31113;DHT22;17763;48.730;9.136;2023-09-18T09:26:17;19.50;99.90
31113;DHT22;17763;48.730;9.136;2023-09-18T09:28:44;19.40;99.90
31113;DHT22;17763;48.730;9.136;2023-09-18T09:31:10;19.40;99.90
31113;DHT22;17763;48.730;9.136;2023-09-18T09:33:37;19.40;99.90
31113;DHT22;17763;48.730;9.136;2023-09-18T09:36:06;19.40;99.90
31113;DHT22;17763;48.730;9.136;2023-09-18T09:38:34;19.40;99.90
31113;DHT22;17763;48.730;9.136;2023-09-18T09:41:01;19.40;99.90
31113;DHT22;17763;48.730;9.136;2023-09-18T09:43:29;19.40;99.90
31113;DHT22;17763;48.730;9.136;2023-09-18T09:46:00;19.40;99.90
31113;DHT22;17763;48.730;9.136;2023-09-18T09:48:27;19.40;99.90
31113;DHT22;17763;48.730;9.136;2023-09-18T09:50:58;19.50;99.90
31113;DHT22;17763;48.730;9.136;2023-09-18T09:53:44;19.50;99.90
31113;DHT22;17763;48.730;9.136;2023-09-18T09:56:14;19.50;99.90
31113;DHT22;17763;48.730;9.136;2023-09-18T09:58:40;19.60;99.90
31113;DHT22;17763;48.730;9.136;2023-09-18T10:01:12;19.70;99.90
31113;DHT22;17763;48.730;9.136;2023-09-18T10:03:44;19.80;99.90
31113;DHT22;17763;48.730;9.136;2023-09-18T10:06:11;19.80;99.90
31113;DHT22;17763;48.730;9.136;2023-09-18T10:08:42;19.90;99.90
31113;DHT22;17763;48.730;9.136;2023-09-18T10:11:09;19.90;99.90
31113;DHT22;17763;48.730;9.136;2023-09-18T10:13:50;20.00;99.90
31113;DHT22;17763;48.730;9.136;2023-09-18T10:16:19;20.10;99.90
31113;DHT22;17763;48.730;9.136;2023-09-18T10:21:40;20.10;99.90
31113;DHT22;17763;48.730;9.136;2023-09-18T10:26:50;20.00;99.90
31113;DHT22;17763;48.730;9.136;2023-09-18T10:29:17;20.00;99.90
31113;DHT22;17763;48.730;9.136;2023-09-18T10:31:45;20.00;99.90
31113;DHT22;17763;48.730;9.136;2023-09-18T10:34:12;19.90;99.90
31113;DHT22;17763;48.730;9.136;2023-09-18T10:36:41;19.90;99.90
31113;DHT22;17763;48.730;9.136;2023-09-18T10:39:09;19.80;99.90
31113;DHT22;17763;48.730;9.136;2023-09-18T10:41:38;19.80;99.90
31113;DHT22;17763;48.730;9.136;2023-09-18T10:44:07;19.80;99.90
31113;DHT22;17763;48.730;9.136;2023-09-18T10:46:34;19.70;99.90
31113;DHT22;17763;48.730;9.136;2023-09-18T10:49:00;19.80;99.90
31113;DHT22;17763;48.730;9.136;2023-09-18T10:51:31;19.70;99.90
31113;DHT22;17763;48.730;9.136;2023-09-18T10:54:00;19.70;99.90
31113;DHT22;17763;48.730;9.136;2023-09-18T10:56:26;19.70;99.90
31113;DHT22;17763;48.730;9.136;2023-09-18T10:58:59;19.70;99.90
31113;DHT22;17763;48.730;9.136;2023-09-18T11:01:25;19.70;99.90
31113;DHT22;17763;48.730;9.136;2023-09-18T11:03:54;19.70;99.90
31113;DHT22;17763;48.730;9.136;2023-09-18T11:06:22;19.70;99.90
31113;DHT22;17763;48.730;9.136;2023-09-18T11:08:55;19.70;99.90
31113;DHT22;17763;48.730;9.136;2023-09-18T11:11:26;19.70;99.90
31113;DHT22;17763;48.730;9.136;2023-09-18T11:13:56;19.70;99.90
31113;DHT22;17763;48.730;9.136;2023-09-18T11:21:27;19.70;99.90
31113;DHT22;17763;48.730;9.136;2023-09-18T11:24:20;19.70;99.90
31113;DHT22;17763;48.730;9.136;2023-09-18T11:26:50;19.70;99.90
31113;DHT22;17763;48.730;9.136;2023-09-18T11:29:21;19.70;99.90
31113;DHT22;17763;48.730;9.136;2023-09-18T11:31:53;19.70;99.90
31113;DHT22;17763;48.730;9.136;2023-09-18T11:34:25;19.60;99.90
31113;DHT22;17763;48.730;9.136;2023-09-18T11:37:00;19.60;99.90
31113;DHT22;17763;48.730;9.136;2023-09-18T11:39:36;19.60;99.90
31113;DHT22;17763;48.730;9.136;2023-09-18T11:42:10;19.60;99.90
31113;DHT22;17763;48.730;9.136;2023-09-18T11:44:37;19.70;99.90
31113;DHT22;17763;48.730;9.136;2023-09-18T11:47:08;19.70;99.90
31113;DHT22;17763;48.730;9.136;2023-09-18T11:49:39;19.80;99.90
31113;DHT22;17763;48.730;9.136;2023-09-18T11:52:08;19.70;99.90
31113;DHT22;17763;48.730;9.136;2023-09-18T11:54:34;19.80;99.90
31113;DHT22;17763;48.730;9.136;2023-09-18T11:57:06;19.80;99.90
31113;DHT22;17763;48.730;9.136;2023-09-18T11:59:40;19.80;99.90
31113;DHT22;17763;48.730;9.136;2023-09-18T12:02:12;19.90;99.90
31113;DHT22;17763;48.730;9.136;2023-09-18T12:04:46;19.90;99.90
31113;DHT22;17763;48.730;9.136;2023-09-18T12:07:12;19.90;99.90
31113;DHT22;17763;48.730;9.136;2023-09-18T12:09:39;19.90;99.90
31113;DHT22;17763;48.730;9.136;2023-09-18T12:12:06;19.90;99.90
31113;DHT22;17763;48.730;9.136;2023-09-18T12:14:33;19.90;99.90
31113;DHT22;17763;48.730;9.136;2023-09-18T12:17:02;19.90;99.90
31113;DHT22;17763;48.730;9.136;2023-09-18T12:19:30;19.80;99.90
31113;DHT22;17763;48.730;9.136;2023-09-18T12:21:56;19.80;99.90
31113;DHT22;17763;48.730;9.136;2023-09-18T12:24:25;19.80;99.90
31113;DHT22;17763;48.730;9.136;2023-09-18T12:26:52;19.80;99.90
31113;DHT22;17763;48.730;9.136;2023-09-18T12:29:19;19.80;99.90
31113;DHT22;17763;48.730;9.136;2023-09-18T12:31:44;19.80;99.90
31113;DHT22;17763;48.730;9.136;2023-09-18T12:34:19;19.80;99.90
31113;DHT22;17763;48.730;9.136;2023-09-18T12:36:47;19.90;99.90
31113;DHT22;17763;48.730;9.136;2023-09-18T12:39:14;20.00;99.90
31113;DHT22;17763;48.730;9.136;2023-09-18T12:41:46;20.10;99.90
31113;DHT22;17763;48.730;9.136;2023-09-18T12:44:15;20.30;99.90
31113;DHT22;17763;48.730;9.136;2023-09-18T12:46:42;20.40;99.90
31113;DHT22;17763;48.730;9.136;2023-09-18T12:49:16;20.60;99.90
31113;DHT22;17763;48.730;9.136;2023-09-18T12:51:41;20.80;99.90
31113;DHT22;17763;48.730;9.136;2023-09-18T12:54:07;21.00;99.90
31113;DHT22;17763;48.730;9.136;2023-09-18T12:56:33;21.20;99.90
31113;DHT22;17763;48.730;9.136;2023-09-18T12:59:05;21.30;99.90
31113;DHT22;17763;48.730;9.136;2023-09-18T13:01:30;21.40;99.90
31113;DHT22;17763;48.730;9.136;2023-09-18T13:03:56;21.50;99.90
31113;DHT22;17763;48.730;9.136;2023-09-18T13:06:24;21.50;99.90
31113;DHT22;17763;48.730;9.136;2023-09-18T13:08:50;21.60;99.90
31113;DHT22;17763;48.730;9.136;2023-09-18T13:11:18;21.60;99.90
31113;DHT22;17763;48.730;9.136;2023-09-18T13:13:46;21.60;99.90
31113;DHT22;17763;48.730;9.136;2023-09-18T13:16:25;21.70;99.90
31113;DHT22;17763;48.730;9.136;2023-09-18T13:18:50;21.70;99.90
31113;DHT22;17763;48.730;9.136;2023-09-18T13:21:20;21.70;99.90
31113;DHT22;17763;48.730;9.136;2023-09-18T13:23:45;21.80;99.90
31113;DHT22;17763;48.730;9.136;2023-09-18T13:26:11;21.80;99.90
31113;DHT22;17763;48.730;9.136;2023-09-18T13:28:37;21.80;99.90
31113;DHT22;17763;48.730;9.136;2023-09-18T13:31:05;21.90;99.90
31113;DHT22;17763;48.730;9.136;2023-09-18T13:33:32;22.00;99.90
31113;DHT22;17763;48.730;9.136;2023-09-18T13:35:59;22.10;99.90
31113;DHT22;17763;48.730;9.136;2023-09-18T13:38:27;22.30;99.90
31113;DHT22;17763;48.730;9.136;2023-09-18T13:40:53;22.40;99.90
31113;DHT22;17763;48.730;9.136;2023-09-18T13:43:23;22.50;99.90
31113;DHT22;17763;48.730;9.136;2023-09-18T13:45:51;22.50;99.90
31113;DHT22;17763;48.730;9.136;2023-09-18T13:48:20;22.50;99.90
31113;DHT22;17763;48.730;9.136;2023-09-18T13:50:47;22.50;99.90
31113;DHT22;17763;48.730;9.136;2023-09-18T13:53:13;22.50;99.90
31113;DHT22;17763;48.730;9.136;2023-09-18T13:55:39;22.50;99.90
31113;DHT22;17763;48.730;9.136;2023-09-18T13:58:05;22.40;99.90
31113;DHT22;17763;48.730;9.136;2023-09-18T14:00:33;22.50;99.90
31113;DHT22;17763;48.730;9.136;2023-09-18T14:02:59;22.50;99.90
31113;DHT22;17763;48.730;9.136;2023-09-18T14:05:25;22.50;99.90
31113;DHT22;17763;48.730;9.136;2023-09-18T14:07:52;22.50;99.90
31113;DHT22;17763;48.730;9.136;2023-09-18T14:10:22;22.50;99.90
31113;DHT22;17763;48.730;9.136;2023-09-18T14:12:48;22.50;99.90
31113;DHT22;17763;48.730;9.136;2023-09-18T14:15:15;22.50;99.90
31113;DHT22;17763;48.730;9.136;2023-09-18T14:17:41;22.60;99.90
31113;DHT22;17763;48.730;9.136;2023-09-18T14:20:09;22.60;99.90
31113;DHT22;17763;48.730;9.136;2023-09-18T14:22:38;22.70;99.90
31113;DHT22;17763;48.730;9.136;2023-09-18T14:25:04;22.70;99.90
31113;DHT22;17763;48.730;9.136;2023-09-18T14:27:31;22.80;99.90
31113;DHT22;17763;48.730;9.136;2023-09-18T14:30:00;22.80;99.90
31113;DHT22;17763;48.730;9.136;2023-09-18T14:32:29;22.90;99.90
31113;DHT22;17763;48.730;9.136;2023-09-18T14:34:54;22.90;99.90
31113;DHT22;17763;48.730;9.136;2023-09-18T14:37:20;22.90;99.90
31113;DHT22;17763;48.730;9.136;2023-09-18T14:39:46;22.90;99.90
31113;DHT22;17763;48.730;9.136;2023-09-18T14:42:14;23.00;99.90
31113;DHT22;17763;48.730;9.136;2023-09-18T14:44:40;22.90;99.90
31113;DHT22;17763;48.730;9.136;2023-09-18T14:47:10;22.90;99.90
31113;DHT22;17763;48.730;9.136;2023-09-18T14:49:36;22.80;99.80
31113;DHT22;17763;48.730;9.136;2023-09-18T14:52:02;22.90;99.60
31113;DHT22;17763;48.730;9.136;2023-09-18T14:54:31;23.00;99.40
31113;DHT22;17763;48.730;9.136;2023-09-18T14:56:56;23.10;99.30
31113;DHT22;17763;48.730;9.136;2023-09-18T14:59:28;23.20;99.00
31113;DHT22;17763;48.730;9.136;2023-09-18T15:01:56;23.30;98.30
31113;DHT22;17763;48.730;9.136;2023-09-18T15:04:22;23.30;98.10
31113;DHT22;17763;48.730;9.136;2023-09-18T15:06:48;23.30;98.10
31113;DHT22;17763;48.730;9.136;2023-09-18T15:09:14;23.30;98.00
31113;DHT22;17763;48.730;9.136;2023-09-18T15:11:39;23.20;97.70
31113;DHT22;17763;48.730;9.136;2023-09-18T15:14:05;23.10;97.70
31113;DHT22;17763;48.730;9.136;2023-09-18T15:16:31;23.00;97.90
31113;DHT22;17763;48.730;9.136;2023-09-18T15:18:57;22.90;97.90
31113;DHT22;17763;48.730;9.136;2023-09-18T15:21:28;22.80;98.10
31113;DHT22;17763;48.730;9.136;2023-09-18T15:23:53;22.70;98.10
31113;DHT22;17763;48.730;9.136;2023-09-18T15:26:19;22.70;98.30
31113;DHT22;17763;48.730;9.136;2023-09-18T15:28:47;22.80;98.30
31113;DHT22;17763;48.730;9.136;2023-09-18T15:31:13;22.90;98.20
31113;DHT22;17763;48.730;9.136;2023-09-18T15:33:38;23.00;97.90
31113;DHT22;17763;48.730;9.136;2023-09-18T15:36:06;23.10;97.90
31113;DHT22;17763;48.730;9.136;2023-09-18T15:38:33;23.20;97.50
31113;DHT22;17763;48.730;9.136;2023-09-18T15:40:59;23.30;97.50
31113;DHT22;17763;48.730;9.136;2023-09-18T15:43:25;23.40;97.50
31113;DHT22;17763;48.730;9.136;2023-09-18T15:45:53;23.40;97.30
31113;DHT22;17763;48.730;9.136;2023-09-18T15:48:18;23.50;97.10
31113;DHT22;17763;48.730;9.136;2023-09-18T15:50:44;23.60;96.80